createdAt,value
2022-11-20T00:00:50.016Z,13.50
2022-11-20T00:01:49.939Z,13.30
2022-11-20T00:02:49.897Z,13.90
2022-11-20T00:03:49.899Z,13.50
2022-11-20T00:04:49.852Z,13.90
2022-11-20T00:05:49.886Z,12.90
2022-11-20T00:06:49.856Z,14.00
2022-11-20T00:07:49.864Z,13.30
2022-11-20T00:08:49.938Z,13.80
2022-11-20T00:09:49.833Z,14.30
2022-11-20T00:10:49.881Z,14.00
2022-11-20T00:11:49.874Z,13.90
2022-11-20T00:12:49.829Z,14.40
2022-11-20T00:13:49.860Z,16.50
2022-11-20T00:14:49.815Z,16.30
2022-11-20T00:15:49.815Z,15.30
2022-11-20T00:16:49.825Z,15.30
2022-11-20T00:17:49.775Z,15.70
2022-11-20T00:18:49.847Z,15.00
2022-11-20T00:19:49.840Z,17.30
2022-11-20T00:20:49.776Z,17.80
2022-11-20T00:21:49.777Z,16.60
2022-11-20T00:22:49.817Z,17.30
2022-11-20T00:23:49.783Z,17.20
2022-11-20T00:24:49.751Z,16.40
2022-11-20T00:25:49.757Z,21.00
2022-11-20T00:26:49.729Z,17.90
2022-11-20T00:27:49.748Z,18.70
2022-11-20T00:28:49.743Z,20.70
2022-11-20T00:29:49.804Z,19.20
2022-11-20T00:30:49.703Z,20.10
2022-11-20T00:31:49.727Z,18.50
2022-11-20T00:32:49.810Z,19.40
2022-11-20T00:33:49.765Z,16.40
2022-11-20T00:34:49.709Z,16.40
2022-11-20T00:35:49.702Z,15.80
2022-11-20T00:36:49.696Z,16.40
2022-11-20T00:37:49.688Z,16.40
2022-11-20T00:38:49.712Z,16.20
2022-11-20T00:39:49.704Z,16.90
2022-11-20T00:40:53.673Z,17.60
2022-11-20T00:41:51.671Z,16.10
2022-11-20T00:42:49.665Z,17.10
2022-11-20T00:43:49.645Z,17.80
2022-11-20T00:44:49.684Z,17.50
2022-11-20T00:45:49.709Z,17.70
2022-11-20T00:46:49.626Z,16.90
2022-11-20T00:47:49.661Z,15.80
2022-11-20T00:48:49.665Z,16.00
2022-11-20T00:49:49.641Z,16.20
2022-11-20T00:50:49.604Z,16.20
2022-11-20T00:51:49.613Z,18.60
2022-11-20T00:52:49.608Z,17.50
2022-11-20T00:53:49.629Z,16.90
2022-11-20T00:54:49.617Z,17.00
2022-11-20T00:55:49.588Z,18.20
2022-11-20T00:56:49.568Z,17.60
2022-11-20T00:57:49.567Z,17.80
2022-11-20T00:58:49.657Z,16.70
2022-11-20T00:59:49.568Z,16.90
2022-11-20T01:00:49.653Z,16.20
2022-11-20T01:01:49.639Z,16.00
2022-11-20T01:02:49.598Z,16.40
2022-11-20T01:03:49.535Z,16.00
2022-11-20T01:04:49.575Z,17.00
2022-11-20T01:05:49.574Z,17.20
2022-11-20T01:06:49.583Z,15.90
2022-11-20T01:07:49.594Z,15.40
2022-11-20T01:08:49.536Z,15.70
2022-11-20T01:09:49.522Z,15.80
2022-11-20T01:10:49.514Z,16.30
2022-11-20T01:11:49.569Z,15.30
2022-11-20T01:12:49.549Z,15.00
2022-11-20T01:13:49.493Z,14.90
2022-11-20T01:14:49.542Z,14.90
2022-11-20T01:15:49.503Z,14.60
2022-11-20T01:16:49.537Z,15.50
2022-11-20T01:17:49.456Z,14.80
2022-11-20T01:18:49.488Z,15.00
2022-11-20T01:19:49.459Z,14.90
2022-11-20T01:20:49.471Z,14.10
2022-11-20T01:21:49.513Z,14.90
2022-11-20T01:22:49.435Z,15.10
2022-11-20T01:23:49.444Z,15.70
2022-11-20T01:24:49.443Z,15.40
2022-11-20T01:25:49.449Z,16.20
2022-11-20T01:26:49.457Z,16.30
2022-11-20T01:27:49.407Z,15.10
2022-11-20T01:28:49.449Z,15.30
2022-11-20T01:29:49.468Z,15.70
2022-11-20T01:30:49.391Z,16.90
2022-11-20T01:31:49.423Z,16.00
2022-11-20T01:32:49.403Z,15.40
2022-11-20T01:33:49.412Z,16.00
2022-11-20T01:34:49.448Z,16.20
2022-11-20T01:35:49.370Z,14.90
2022-11-20T01:36:49.395Z,15.10
2022-11-20T01:37:49.379Z,15.60
2022-11-20T01:38:49.381Z,14.90
2022-11-20T01:39:49.374Z,16.40
2022-11-20T01:40:49.375Z,15.50
2022-11-20T01:41:49.345Z,14.90
2022-11-20T01:42:49.340Z,15.20
2022-11-20T01:43:49.347Z,16.30
2022-11-20T01:44:49.381Z,16.80
2022-11-20T01:45:49.413Z,15.90
2022-11-20T01:46:49.297Z,15.20
2022-11-20T01:47:49.292Z,15.90
2022-11-20T01:48:49.302Z,15.80
2022-11-20T01:49:49.296Z,16.50
2022-11-20T01:50:49.358Z,16.50
2022-11-20T01:51:50.263Z,15.70
2022-11-20T01:52:49.280Z,16.20
2022-11-20T01:53:49.259Z,16.60
2022-11-20T01:54:49.244Z,15.70
2022-11-20T01:55:49.289Z,15.30
2022-11-20T01:56:49.316Z,14.60
2022-11-20T01:57:49.298Z,14.70
2022-11-20T01:58:49.261Z,15.40
2022-11-20T01:59:49.230Z,16.20
2022-11-20T02:00:49.224Z,16.10
2022-11-20T02:01:49.254Z,15.30
2022-11-20T02:02:49.246Z,15.30
2022-11-20T02:03:49.220Z,15.80
2022-11-20T02:04:49.241Z,15.50
2022-11-20T02:05:49.249Z,15.20
2022-11-20T02:06:49.197Z,15.30
2022-11-20T02:07:49.235Z,14.90
2022-11-20T02:08:49.224Z,14.90
2022-11-20T02:09:49.281Z,15.00
2022-11-20T02:10:49.179Z,15.90
2022-11-20T02:11:49.173Z,16.20
2022-11-20T02:12:49.169Z,15.80
2022-11-20T02:13:49.184Z,15.40
2022-11-20T02:14:49.173Z,15.10
2022-11-20T02:15:49.146Z,16.20
2022-11-20T02:16:49.158Z,14.40
2022-11-20T02:17:49.128Z,15.10
2022-11-20T02:18:50.209Z,16.40
2022-11-20T02:19:49.137Z,16.00
2022-11-20T02:20:49.124Z,16.00
2022-11-20T02:21:49.148Z,15.40
2022-11-20T02:22:49.122Z,14.80
2022-11-20T02:23:49.096Z,15.20
2022-11-20T02:24:49.120Z,16.20
2022-11-20T02:25:49.100Z,15.80
2022-11-20T02:26:49.090Z,16.30
2022-11-20T02:27:49.092Z,15.30
2022-11-20T02:28:49.105Z,15.60
2022-11-20T02:29:49.258Z,15.10
2022-11-20T02:30:49.061Z,15.80
2022-11-20T02:31:49.066Z,16.40
2022-11-20T02:32:49.101Z,15.50
2022-11-20T02:33:49.115Z,14.60
2022-11-20T02:34:49.127Z,14.90
2022-11-20T02:35:49.045Z,15.40
2022-11-20T02:36:49.047Z,15.70
2022-11-20T02:37:49.055Z,15.60
2022-11-20T02:38:49.032Z,15.80
2022-11-20T02:39:49.068Z,16.20
2022-11-20T02:40:54.070Z,16.40
2022-11-20T02:41:51.032Z,16.70
2022-11-20T02:42:49.042Z,15.50
2022-11-20T02:43:48.999Z,16.70
2022-11-20T02:44:48.979Z,17.30
2022-11-20T02:45:49.999Z,16.70
2022-11-20T02:46:49.048Z,16.80
2022-11-20T02:47:49.013Z,16.50
2022-11-20T02:48:49.008Z,16.70
2022-11-20T02:49:48.974Z,16.30
2022-11-20T02:50:48.974Z,16.30
2022-11-20T02:51:48.975Z,15.90
2022-11-20T02:52:48.965Z,16.20
2022-11-20T02:53:48.959Z,15.30
2022-11-20T02:54:48.940Z,14.50
2022-11-20T02:55:48.975Z,15.20
2022-11-20T02:56:48.906Z,15.80
2022-11-20T02:57:48.977Z,14.80
2022-11-20T02:58:48.973Z,14.90
2022-11-20T02:59:48.928Z,14.70
2022-11-20T03:00:48.931Z,16.10
2022-11-20T03:01:48.899Z,15.30
2022-11-20T03:02:48.898Z,14.50
2022-11-20T03:03:48.912Z,14.60
2022-11-20T03:04:48.906Z,15.30
2022-11-20T03:05:48.864Z,14.90
2022-11-20T03:06:48.878Z,14.70
2022-11-20T03:07:48.875Z,16.50
2022-11-20T03:08:48.885Z,15.80
2022-11-20T03:09:48.907Z,16.10
2022-11-20T03:10:48.890Z,16.00
2022-11-20T03:11:48.850Z,15.40
2022-11-20T03:12:48.857Z,15.00
2022-11-20T03:13:48.834Z,15.10
2022-11-20T03:14:52.834Z,16.40
2022-11-20T03:15:49.826Z,16.00
2022-11-20T03:16:48.866Z,15.20
2022-11-20T03:17:48.806Z,15.40
2022-11-20T03:18:48.818Z,15.90
2022-11-20T03:19:48.821Z,15.50
2022-11-20T03:20:48.823Z,15.00
2022-11-20T03:21:48.790Z,15.10
2022-11-20T03:22:48.804Z,15.20
2022-11-20T03:23:48.782Z,15.70
2022-11-20T03:24:48.782Z,15.80
2022-11-20T03:25:48.807Z,15.40
2022-11-20T03:26:48.759Z,15.60
2022-11-20T03:27:48.776Z,14.50
2022-11-20T03:28:48.747Z,15.50
2022-11-20T03:29:48.744Z,15.90
2022-11-20T03:30:48.773Z,15.20
2022-11-20T03:31:48.753Z,16.00
2022-11-20T03:32:48.737Z,16.20
2022-11-20T03:33:48.721Z,15.80
2022-11-20T03:34:48.733Z,16.80
2022-11-20T03:35:48.738Z,15.90
2022-11-20T03:36:48.739Z,15.60
2022-11-20T03:37:48.701Z,16.80
2022-11-20T03:38:48.731Z,17.70
2022-11-20T03:39:48.685Z,16.60
2022-11-20T03:40:48.690Z,16.50
2022-11-20T03:41:48.699Z,15.70
2022-11-20T03:42:48.706Z,16.80
2022-11-20T03:43:48.657Z,16.40
2022-11-20T03:44:48.675Z,16.40
2022-11-20T03:45:48.655Z,16.40
2022-11-20T03:46:48.677Z,17.20
2022-11-20T03:47:48.651Z,17.30
2022-11-20T03:48:51.681Z,17.10
2022-11-20T03:49:49.680Z,17.50
2022-11-20T03:50:48.642Z,17.70
2022-11-20T03:51:48.703Z,17.50
2022-11-20T03:52:49.645Z,17.30
2022-11-20T03:53:48.629Z,18.90
2022-11-20T03:54:48.634Z,19.40
2022-11-20T03:55:48.595Z,19.30
2022-11-20T03:56:48.598Z,19.40
2022-11-20T03:57:48.597Z,19.20
2022-11-20T03:58:48.599Z,19.40
2022-11-20T03:59:48.586Z,19.10
2022-11-20T04:00:48.593Z,19.30
2022-11-20T04:01:49.661Z,21.00
2022-11-20T04:02:49.573Z,20.10
2022-11-20T04:03:48.567Z,20.50
2022-11-20T04:04:48.595Z,20.00
2022-11-20T04:05:48.578Z,20.30
2022-11-20T04:06:48.546Z,20.60
2022-11-20T04:07:48.544Z,19.70
2022-11-20T04:08:53.383Z,20.30
2022-11-20T04:09:50.527Z,20.40
2022-11-20T04:10:48.544Z,20.50
2022-11-20T04:11:48.544Z,18.80
2022-11-20T04:12:48.501Z,19.90
2022-11-20T04:13:48.494Z,20.50
2022-11-20T04:14:48.546Z,19.70
2022-11-20T04:15:48.572Z,20.00
2022-11-20T04:16:48.485Z,19.00
2022-11-20T04:17:48.499Z,20.20
2022-11-20T04:18:48.477Z,19.80
2022-11-20T04:19:48.509Z,20.20
2022-11-20T04:20:48.504Z,20.00
2022-11-20T04:21:48.541Z,20.50
2022-11-20T04:22:48.468Z,20.00
2022-11-20T04:23:48.451Z,20.60
2022-11-20T04:24:48.436Z,20.30
2022-11-20T04:25:48.441Z,20.40
2022-11-20T04:26:49.471Z,20.10
2022-11-20T04:27:48.448Z,20.40
2022-11-20T04:28:48.416Z,20.50
2022-11-20T04:29:48.422Z,20.10
2022-11-20T04:30:48.415Z,20.70
2022-11-20T04:31:48.449Z,21.10
2022-11-20T04:32:48.436Z,21.30
2022-11-20T04:33:48.431Z,21.30
2022-11-20T04:34:48.385Z,20.80
2022-11-20T04:35:48.397Z,22.60
2022-11-20T04:36:48.412Z,22.60
2022-11-20T04:37:48.519Z,21.80
2022-11-20T04:38:52.544Z,21.40
2022-11-20T04:39:49.391Z,21.30
2022-11-20T04:40:48.367Z,21.80
2022-11-20T04:41:48.398Z,21.30
2022-11-20T04:42:48.358Z,21.30
2022-11-20T04:43:48.392Z,21.30
2022-11-20T04:44:48.371Z,21.20
2022-11-20T04:45:48.334Z,20.40
2022-11-20T04:46:48.336Z,21.10
2022-11-20T04:47:48.333Z,20.60
2022-11-20T04:48:48.372Z,20.50
2022-11-20T04:49:48.366Z,20.80
2022-11-20T04:50:48.366Z,20.10
2022-11-20T04:51:48.324Z,20.20
2022-11-20T04:52:48.304Z,20.20
2022-11-20T04:53:48.323Z,20.60
2022-11-20T04:54:48.295Z,20.60
2022-11-20T04:55:48.280Z,19.40
2022-11-20T04:56:48.783Z,20.20
2022-11-20T04:57:49.272Z,20.50
2022-11-20T04:58:48.296Z,19.30
2022-11-20T04:59:48.285Z,19.00
2022-11-20T05:00:48.265Z,19.00
2022-11-20T05:01:48.289Z,19.20
2022-11-20T05:02:48.280Z,19.90
2022-11-20T05:03:48.258Z,19.60
2022-11-20T05:04:48.291Z,20.20
2022-11-20T05:05:48.283Z,20.80
2022-11-20T05:06:48.241Z,21.10
2022-11-20T05:07:48.216Z,20.80
2022-11-20T05:08:48.236Z,21.20
2022-11-20T05:09:48.225Z,21.20
2022-11-20T05:10:48.237Z,21.20
2022-11-20T05:11:51.468Z,20.80
2022-11-20T05:12:49.230Z,21.60
2022-11-20T05:13:48.171Z,20.80
2022-11-20T05:14:48.164Z,21.30
2022-11-20T05:15:48.191Z,20.00
2022-11-20T05:16:48.165Z,21.20
2022-11-20T05:17:48.180Z,22.00
2022-11-20T05:18:48.158Z,21.70
2022-11-20T05:19:52.880Z,20.90
2022-11-20T05:20:49.161Z,21.60
2022-11-20T05:21:48.169Z,21.70
2022-11-20T05:22:48.127Z,20.50
2022-11-20T05:23:48.230Z,21.30
2022-11-20T05:24:48.129Z,21.40
2022-11-20T05:25:48.132Z,22.30
2022-11-20T05:26:48.132Z,21.40
2022-11-20T05:27:48.143Z,22.20
2022-11-20T05:28:48.113Z,21.30
2022-11-20T05:29:48.162Z,22.00
2022-11-20T05:30:48.109Z,21.60
2022-11-20T05:31:48.109Z,20.20
2022-11-20T05:32:48.124Z,21.10
2022-11-20T05:33:48.083Z,20.20
2022-11-20T05:34:48.129Z,20.70
2022-11-20T05:35:48.087Z,20.70
2022-11-20T05:36:48.055Z,20.50
2022-11-20T05:37:48.061Z,20.10
2022-11-20T05:38:50.877Z,20.40
2022-11-20T05:39:49.101Z,20.30
2022-11-20T05:40:48.099Z,21.20
2022-11-20T05:41:48.027Z,21.20
2022-11-20T05:42:48.050Z,20.40
2022-11-20T05:43:48.044Z,20.70
2022-11-20T05:44:48.019Z,20.30
2022-11-20T05:45:48.004Z,20.40
2022-11-20T05:46:48.018Z,20.50
2022-11-20T05:47:48.002Z,20.40
2022-11-20T05:48:48.016Z,21.20
2022-11-20T05:49:48.024Z,20.70
2022-11-20T05:50:48.012Z,20.10
2022-11-20T05:51:47.987Z,20.60
2022-11-20T05:52:47.973Z,20.00
2022-11-20T05:53:48.783Z,20.80
2022-11-20T05:54:49.006Z,20.20
2022-11-20T05:55:47.952Z,21.10
2022-11-20T05:56:47.966Z,21.20
2022-11-20T05:57:47.946Z,21.50
2022-11-20T05:58:47.968Z,21.70
2022-11-20T05:59:47.959Z,20.60
2022-11-20T06:00:48.074Z,21.10
2022-11-20T06:01:47.978Z,22.20
2022-11-20T06:02:47.988Z,21.70
2022-11-20T06:03:47.985Z,22.10
2022-11-20T06:04:47.898Z,22.60
2022-11-20T06:05:47.930Z,23.50
2022-11-20T06:06:47.929Z,22.60
2022-11-20T06:07:47.895Z,23.30
2022-11-20T06:08:47.907Z,23.00
2022-11-20T06:09:47.874Z,23.70
2022-11-20T06:10:47.867Z,23.20
2022-11-20T06:11:47.951Z,24.10
2022-11-20T06:12:47.906Z,24.00
2022-11-20T06:13:47.870Z,24.10
2022-11-20T06:14:47.989Z,23.50
2022-11-20T06:15:47.898Z,24.00
2022-11-20T06:16:47.864Z,23.50
2022-11-20T06:17:47.835Z,23.00
2022-11-20T06:18:47.852Z,23.10
2022-11-20T06:19:47.837Z,23.80
2022-11-20T06:20:47.836Z,23.90
2022-11-20T06:21:47.809Z,24.60
2022-11-20T06:22:47.852Z,25.50
2022-11-20T06:23:47.847Z,25.10
2022-11-20T06:24:47.810Z,25.10
2022-11-20T06:25:47.796Z,24.40
2022-11-20T06:26:47.797Z,23.40
2022-11-20T06:27:47.818Z,25.00
2022-11-20T06:28:47.813Z,25.10
2022-11-20T06:29:47.774Z,25.20
2022-11-20T06:30:47.806Z,24.30
2022-11-20T06:31:47.770Z,23.70
2022-11-20T06:32:47.765Z,24.70
2022-11-20T06:33:47.812Z,23.20
2022-11-20T06:34:47.771Z,24.40
2022-11-20T06:35:47.767Z,23.80
2022-11-20T06:36:47.732Z,23.50
2022-11-20T06:37:47.742Z,24.70
2022-11-20T06:38:47.740Z,23.60
2022-11-20T06:39:47.725Z,23.90
2022-11-20T06:40:47.775Z,24.50
2022-11-20T06:41:47.722Z,22.30
2022-11-20T06:42:47.733Z,22.60
2022-11-20T06:43:47.700Z,24.60
2022-11-20T06:44:47.763Z,23.20
2022-11-20T06:45:47.692Z,24.70
2022-11-20T06:46:47.745Z,24.60
2022-11-20T06:47:47.696Z,25.00
2022-11-20T06:48:47.686Z,25.30
2022-11-20T06:49:47.724Z,24.70
2022-11-20T06:50:47.676Z,24.80
2022-11-20T06:51:47.697Z,25.30
2022-11-20T06:52:47.641Z,24.60
2022-11-20T06:53:47.679Z,25.50
2022-11-20T06:54:47.633Z,26.80
2022-11-20T06:55:47.631Z,25.90
2022-11-20T06:56:47.659Z,26.60
2022-11-20T06:57:49.775Z,26.70
2022-11-20T06:58:48.622Z,25.90
2022-11-20T06:59:47.677Z,26.40
2022-11-20T07:00:47.716Z,26.40
2022-11-20T07:01:47.680Z,27.10
2022-11-20T07:02:47.611Z,27.90
2022-11-20T07:03:52.833Z,29.40
2022-11-20T07:04:49.622Z,30.20
2022-11-20T07:05:47.602Z,30.40
2022-11-20T07:06:47.629Z,30.90
2022-11-20T07:07:47.577Z,32.00
2022-11-20T07:08:47.600Z,31.30
2022-11-20T07:09:47.586Z,31.60
2022-11-20T07:10:47.575Z,30.90
2022-11-20T07:11:47.588Z,31.20
2022-11-20T07:12:47.587Z,32.50
2022-11-20T07:13:47.570Z,32.10
2022-11-20T07:14:48.543Z,33.50
2022-11-20T07:15:47.549Z,33.30
2022-11-20T07:16:47.552Z,33.20
2022-11-20T07:17:47.543Z,33.80
2022-11-20T07:18:50.803Z,33.40
2022-11-20T07:19:48.558Z,32.70
2022-11-20T07:20:47.514Z,33.30
2022-11-20T07:21:47.503Z,31.90
2022-11-20T07:22:47.497Z,32.10
2022-11-20T07:23:47.485Z,31.70
2022-11-20T07:24:47.530Z,32.10
2022-11-20T07:25:47.503Z,32.20
2022-11-20T07:26:47.491Z,31.90
2022-11-20T07:27:47.470Z,31.70
2022-11-20T07:28:47.512Z,32.20
2022-11-20T07:29:47.504Z,32.20
2022-11-20T07:30:47.464Z,31.60
2022-11-20T07:31:47.538Z,30.40
2022-11-20T07:32:47.445Z,30.50
2022-11-20T07:33:47.488Z,32.60
2022-11-20T07:34:47.461Z,33.20
2022-11-20T07:35:47.428Z,33.60
2022-11-20T07:36:47.436Z,32.80
2022-11-20T07:37:47.450Z,33.80
2022-11-20T07:38:47.424Z,32.60
2022-11-20T07:39:47.424Z,32.20
2022-11-20T07:40:47.401Z,31.60
2022-11-20T07:41:47.431Z,32.10
2022-11-20T07:42:47.413Z,33.70
2022-11-20T07:43:47.435Z,32.80
2022-11-20T07:44:47.381Z,33.30
2022-11-20T07:45:47.393Z,33.20
2022-11-20T07:46:47.381Z,32.20
2022-11-20T07:47:47.382Z,34.80
2022-11-20T07:48:47.421Z,35.00
2022-11-20T07:49:47.350Z,34.30
2022-11-20T07:50:47.351Z,37.00
2022-11-20T07:51:51.617Z,40.00
2022-11-20T07:52:48.347Z,48.40
2022-11-20T07:53:47.359Z,56.10
2022-11-20T07:54:47.378Z,48.20
2022-11-20T07:55:47.348Z,64.80
2022-11-20T07:56:47.348Z,91.70
2022-11-20T07:57:47.303Z,270.30
2022-11-20T07:58:47.344Z,118.70
2022-11-20T07:59:47.313Z,177.30
2022-11-20T08:00:47.307Z,140.60
2022-11-20T08:01:47.308Z,104.80
2022-11-20T08:02:47.295Z,39.50
2022-11-20T08:03:47.323Z,42.20
2022-11-20T08:04:47.304Z,39.50
2022-11-20T08:05:47.269Z,41.60
2022-11-20T08:06:47.259Z,39.80
2022-11-20T08:07:47.299Z,38.40
2022-11-20T08:08:47.261Z,38.30
2022-11-20T08:09:47.331Z,40.70
2022-11-20T08:10:47.268Z,34.10
2022-11-20T08:11:47.244Z,38.20
2022-11-20T08:12:47.248Z,36.10
2022-11-20T08:13:47.243Z,35.50
2022-11-20T08:14:47.242Z,36.20
2022-11-20T08:15:47.253Z,34.30
2022-11-20T08:16:47.225Z,39.70
2022-11-20T08:18:08.301Z,48.90
2022-11-20T08:18:49.236Z,42.50
2022-11-20T08:19:47.291Z,38.20
2022-11-20T08:20:47.198Z,38.40
2022-11-20T08:21:47.234Z,38.00
2022-11-20T08:22:47.189Z,34.50
2022-11-20T08:23:47.185Z,33.90
2022-11-20T08:24:47.190Z,35.80
2022-11-20T08:25:47.168Z,34.60
2022-11-20T08:26:47.183Z,34.60
2022-11-20T08:27:47.166Z,35.70
2022-11-20T08:28:47.168Z,34.40
2022-11-20T08:29:47.188Z,34.50
2022-11-20T08:30:47.131Z,35.80
2022-11-20T08:31:48.171Z,35.70
2022-11-20T08:32:47.136Z,36.80
2022-11-20T08:33:47.142Z,35.30
2022-11-20T08:34:47.146Z,35.00
2022-11-20T08:35:47.130Z,36.10
2022-11-20T08:36:47.116Z,36.60
2022-11-20T08:37:47.095Z,36.80
2022-11-20T08:38:47.131Z,37.60
2022-11-20T08:39:47.160Z,37.30
2022-11-20T08:40:47.171Z,36.20
2022-11-20T08:41:47.106Z,35.30
2022-11-20T08:42:47.081Z,37.90
2022-11-20T08:43:47.109Z,38.30
2022-11-20T08:44:47.238Z,36.80
2022-11-20T08:45:47.066Z,38.80
2022-11-20T08:46:47.052Z,37.10
2022-11-20T08:47:47.086Z,37.10
2022-11-20T08:48:47.061Z,37.10
2022-11-20T08:49:47.038Z,37.50
2022-11-20T08:50:47.103Z,36.60
2022-11-20T08:51:47.049Z,37.60
2022-11-20T08:52:47.072Z,37.30
2022-11-20T08:53:47.051Z,37.50
2022-11-20T08:54:47.053Z,37.30
2022-11-20T08:55:47.009Z,37.70
2022-11-20T08:56:47.013Z,39.40
2022-11-20T08:57:50.803Z,39.80
2022-11-20T09:00:05.472Z,37.30
2022-11-20T09:00:49.044Z,37.80
2022-11-20T09:01:47.002Z,38.80
2022-11-20T09:02:47.020Z,39.00
2022-11-20T09:03:46.980Z,39.50
2022-11-20T09:04:47.062Z,38.40
2022-11-20T09:05:47.000Z,39.20
2022-11-20T09:06:46.961Z,40.50
2022-11-20T09:07:46.988Z,39.80
2022-11-20T09:08:46.957Z,40.40
2022-11-20T09:09:58.734Z,42.20
2022-11-20T09:10:47.935Z,41.20
2022-11-20T09:11:46.977Z,41.80
2022-11-20T09:12:46.923Z,42.50
2022-11-20T09:13:46.921Z,42.10
2022-11-20T09:14:50.862Z,41.40
2022-11-20T09:15:48.911Z,42.30
2022-11-20T09:16:46.926Z,41.50
2022-11-20T09:17:46.875Z,41.30
2022-11-20T09:18:46.915Z,41.30
2022-11-20T09:19:47.221Z,40.60
2022-11-20T09:20:46.914Z,41.10
2022-11-20T09:21:46.865Z,40.90
2022-11-20T09:22:46.918Z,41.20
2022-11-20T09:23:46.885Z,42.90
2022-11-20T09:24:46.885Z,43.60
2022-11-20T09:25:46.864Z,43.50
2022-11-20T09:26:47.353Z,43.20
2022-11-20T09:27:47.025Z,44.00
2022-11-20T09:28:46.925Z,43.40
2022-11-20T09:29:46.835Z,42.10
2022-11-20T09:30:46.859Z,46.30
2022-11-20T09:31:46.842Z,42.60
2022-11-20T09:32:46.861Z,44.60
2022-11-20T09:33:47.774Z,45.00
2022-11-20T09:34:46.827Z,43.60
2022-11-20T09:35:46.791Z,42.10
2022-11-20T09:36:46.785Z,41.20
2022-11-20T09:37:46.823Z,43.30
2022-11-20T09:38:46.818Z,42.10
2022-11-20T09:39:46.775Z,42.70
2022-11-20T09:40:46.792Z,42.40
2022-11-20T09:41:46.785Z,42.40
2022-11-20T09:42:46.805Z,44.30
2022-11-20T09:43:46.794Z,43.40
2022-11-20T09:44:46.738Z,44.00
2022-11-20T09:45:46.761Z,43.40
2022-11-20T09:46:46.738Z,44.00
2022-11-20T09:47:46.748Z,44.40
2022-11-20T09:48:46.727Z,45.80
2022-11-20T09:49:46.760Z,45.30
2022-11-20T09:50:46.720Z,45.80
2022-11-20T09:51:46.713Z,44.00
2022-11-20T09:52:46.771Z,45.80
2022-11-20T09:53:46.698Z,47.30
2022-11-20T09:54:46.774Z,44.80
2022-11-20T09:55:46.688Z,46.90
2022-11-20T09:56:46.788Z,45.90
2022-11-20T09:57:46.678Z,45.40
2022-11-20T09:58:46.679Z,48.10
2022-11-20T09:59:46.691Z,44.80
2022-11-20T10:00:46.704Z,44.90
2022-11-20T10:01:46.668Z,47.80
2022-11-20T10:02:46.674Z,46.80
2022-11-20T10:03:46.679Z,43.90
2022-11-20T10:04:47.657Z,43.40
2022-11-20T10:05:46.701Z,43.70
2022-11-20T10:06:51.983Z,44.10
2022-11-20T10:07:47.726Z,42.80
2022-11-20T10:08:46.628Z,42.10
2022-11-20T10:09:46.665Z,41.50
2022-11-20T10:10:52.274Z,42.80
2022-11-20T10:11:48.655Z,43.50
2022-11-20T10:12:46.628Z,43.10
2022-11-20T10:13:46.600Z,44.10
2022-11-20T10:14:46.603Z,42.50
2022-11-20T10:15:46.582Z,42.60
2022-11-20T10:16:46.579Z,41.80
2022-11-20T10:17:46.642Z,42.40
2022-11-20T10:18:46.629Z,42.70
2022-11-20T10:19:46.572Z,44.30
2022-11-20T10:20:46.567Z,44.30
2022-11-20T10:21:46.553Z,42.20
2022-11-20T10:22:46.552Z,43.90
2022-11-20T10:23:46.639Z,41.50
2022-11-20T10:24:46.575Z,43.40
2022-11-20T10:25:46.529Z,44.00
2022-11-20T10:26:46.510Z,44.30
2022-11-20T10:27:46.645Z,44.50
2022-11-20T10:28:53.971Z,46.20
2022-11-20T10:29:48.530Z,46.80
2022-11-20T10:30:46.510Z,46.20
2022-11-20T10:31:46.490Z,45.40
2022-11-20T10:32:46.521Z,44.10
2022-11-20T10:34:10.413Z,44.30
2022-11-20T10:34:48.507Z,45.10
2022-11-20T10:35:46.466Z,44.80
2022-11-20T10:36:46.471Z,45.20
2022-11-20T10:37:46.458Z,44.60
2022-11-20T10:38:46.491Z,45.20
2022-11-20T10:39:46.468Z,47.70
2022-11-20T10:40:46.463Z,45.20
2022-11-20T10:41:46.441Z,46.30
2022-11-20T10:42:46.534Z,47.50
2022-11-20T10:43:46.438Z,50.70
2022-11-20T10:44:46.430Z,48.20
2022-11-20T10:45:46.451Z,46.30
2022-11-20T10:46:46.435Z,44.70
2022-11-20T10:47:46.425Z,46.70
2022-11-20T10:48:46.414Z,48.10
2022-11-20T10:49:46.392Z,46.70
2022-11-20T10:50:46.412Z,48.00
2022-11-20T10:51:46.434Z,48.80
2022-11-20T10:52:46.435Z,48.20
2022-11-20T10:53:46.389Z,46.60
2022-11-20T10:54:46.431Z,48.30
2022-11-20T10:55:46.378Z,50.00
2022-11-20T10:56:49.904Z,47.60
2022-11-20T10:57:47.390Z,53.40
2022-11-20T10:58:46.351Z,48.60
2022-11-20T10:59:46.354Z,47.40
2022-11-20T11:00:46.385Z,48.00
2022-11-20T11:01:46.331Z,49.30
2022-11-20T11:02:46.347Z,50.10
2022-11-20T11:03:46.316Z,51.70
2022-11-20T11:04:46.319Z,49.70
2022-11-20T11:05:46.351Z,48.40
2022-11-20T11:06:46.300Z,49.70
2022-11-20T11:07:46.291Z,50.00
2022-11-20T11:08:46.284Z,52.10
2022-11-20T11:09:46.276Z,51.40
2022-11-20T11:10:46.323Z,51.20
2022-11-20T11:11:46.271Z,50.80
2022-11-20T11:12:46.319Z,49.40
2022-11-20T11:13:46.280Z,50.20
2022-11-20T11:14:46.269Z,51.40
2022-11-20T11:15:46.262Z,49.20
2022-11-20T11:16:46.264Z,56.80
2022-11-20T11:17:46.287Z,54.40
2022-11-20T11:18:46.273Z,58.80
2022-11-20T11:19:46.265Z,57.10
2022-11-20T11:20:47.223Z,52.70
2022-11-20T11:21:49.790Z,50.50
2022-11-20T11:22:47.201Z,51.50
2022-11-20T11:23:46.206Z,50.70
2022-11-20T11:24:46.319Z,51.20
2022-11-20T11:25:46.210Z,53.20
2022-11-20T11:26:46.218Z,53.90
2022-11-20T11:27:46.224Z,53.70
2022-11-20T11:28:46.178Z,54.90
2022-11-20T11:29:46.188Z,53.90
2022-11-20T11:30:46.184Z,55.90
2022-11-20T11:31:46.242Z,53.60
2022-11-20T11:32:46.194Z,53.90
2022-11-20T11:33:46.209Z,51.60
2022-11-20T11:34:46.159Z,54.40
2022-11-20T11:35:49.971Z,54.60
2022-11-20T11:36:48.151Z,55.20
2022-11-20T11:37:46.173Z,55.00
2022-11-20T11:38:46.157Z,55.90
2022-11-20T11:39:47.553Z,53.90
2022-11-20T11:40:46.145Z,54.40
2022-11-20T11:41:46.117Z,53.30
2022-11-20T11:42:46.110Z,54.90
2022-11-20T11:43:46.090Z,54.90
2022-11-20T11:44:46.111Z,53.70
2022-11-20T11:45:46.136Z,49.70
2022-11-20T11:46:46.089Z,52.70
2022-11-20T11:47:46.120Z,53.40
2022-11-20T11:48:50.593Z,52.10
2022-11-20T11:49:47.075Z,52.60
2022-11-20T11:50:46.071Z,52.70
2022-11-20T11:51:46.088Z,54.20
2022-11-20T11:52:46.065Z,52.30
2022-11-20T11:53:46.076Z,52.30
2022-11-20T11:54:46.100Z,53.00
2022-11-20T11:55:46.042Z,52.10
2022-11-20T11:56:46.045Z,50.20
2022-11-20T11:57:46.062Z,49.90
2022-11-20T11:58:46.016Z,49.90
2022-11-20T11:59:47.087Z,51.80
2022-11-20T12:00:46.007Z,51.60
2022-11-20T12:01:46.097Z,54.90
2022-11-20T12:02:46.017Z,52.80
2022-11-20T12:03:46.008Z,52.90
2022-11-20T12:04:45.987Z,52.30
2022-11-20T12:05:46.019Z,54.00
2022-11-20T12:06:45.978Z,54.00
2022-11-20T12:07:47.397Z,53.80
2022-11-20T12:08:47.025Z,52.10
2022-11-20T12:09:46.004Z,53.00
2022-11-20T12:10:45.975Z,53.90
2022-11-20T12:11:45.941Z,55.20
2022-11-20T12:12:45.953Z,55.90
2022-11-20T12:13:45.921Z,56.40
2022-11-20T12:14:45.932Z,57.80
2022-11-20T12:15:45.943Z,56.90
2022-11-20T12:16:45.918Z,56.50
2022-11-20T12:17:45.907Z,56.60
2022-11-20T12:18:45.907Z,56.80
2022-11-20T12:19:45.890Z,56.30
2022-11-20T12:20:45.899Z,56.90
2022-11-20T12:21:45.877Z,54.50
2022-11-20T12:22:45.881Z,54.70
2022-11-20T12:23:45.880Z,55.30
2022-11-20T12:24:45.869Z,57.80
2022-11-20T12:25:45.887Z,56.50
2022-11-20T12:26:45.857Z,57.20
2022-11-20T12:27:45.868Z,57.10
2022-11-20T12:28:45.847Z,55.50
2022-11-20T12:29:45.837Z,55.50
2022-11-20T12:30:45.835Z,54.60
2022-11-20T12:31:45.846Z,54.70
2022-11-20T12:32:45.883Z,55.00
2022-11-20T12:33:45.842Z,53.60
2022-11-20T12:34:45.821Z,57.60
2022-11-20T12:35:46.839Z,53.90
2022-11-20T12:36:45.926Z,55.30
2022-11-20T12:37:45.880Z,53.30
2022-11-20T12:38:45.775Z,55.80
2022-11-20T12:39:45.781Z,54.80
2022-11-20T12:40:45.972Z,56.90
2022-11-20T12:41:45.823Z,56.30
2022-11-20T12:42:45.820Z,55.00
2022-11-20T12:43:45.790Z,54.90
2022-11-20T12:44:45.787Z,55.40
2022-11-20T12:45:45.754Z,54.40
2022-11-20T12:46:45.751Z,55.10
2022-11-20T12:47:45.759Z,56.90
2022-11-20T12:48:46.655Z,55.80
2022-11-20T12:49:46.742Z,57.20
2022-11-20T12:51:08.080Z,58.40
2022-11-20T12:51:47.714Z,59.90
2022-11-20T12:52:45.771Z,55.20
2022-11-20T12:53:45.698Z,55.40